Time;durP1;ratioP1;P1;durP2;ratioP2;P2;SDS_P1;SDS_P2;PMS_P1;PMS_P2;Temp;Humidity;BMP_temperature;BMP_pressure;BME280_temperature;BME280_humidity;BME280_pressure;Samples;Min_cycle;Max_cycle;Signal;HPM_P1;HPM_P2
2022/01/15 00:00:56;;;;;;;49.60;16.45;;;;;;;;;;4917528;29;20471;-77
2022/01/15 00:03:22;;;;;;;51.60;16.15;;;;;;;;;;4917116;29;20064;-77
2022/01/15 00:05:48;;;;;;;46.92;16.35;;;;;;;;;;4915945;29;20040;-78
2022/01/15 00:08:14;;;;;;;55.63;16.73;;;;;;;;;;4918223;29;20036;-77
2022/01/15 00:10:40;;;;;;;66.32;18.77;;;;;;;;;;4917738;29;20044;-77
2022/01/15 00:13:13;;;;;;;60.05;17.35;;;;;;;;;;4917385;29;20108;-77
2022/01/15 00:15:46;;;;;;;49.47;14.57;;;;;;;;;;4917541;29;20036;-78
2022/01/15 00:18:15;;;;;;;43.38;14.75;;;;;;;;;;4915175;29;20486;-77
2022/01/15 00:20:41;;;;;;;57.70;16.05;;;;;;;;;;4917571;29;20052;-78
2022/01/15 00:23:07;;;;;;;53.88;16.83;;;;;;;;;;4916007;29;20040;-77
2022/01/15 00:25:33;;;;;;;50.15;16.75;;;;;;;;;;4917919;29;20032;-77
2022/01/15 00:28:01;;;;;;;49.55;15.70;;;;;;;;;;4917249;29;20070;-77
2022/01/15 00:30:27;;;;;;;47.22;17.08;;;;;;;;;;4917384;29;20044;-77
2022/01/15 00:32:54;;;;;;;52.08;16.98;;;;;;;;;;4917515;29;20028;-78
2022/01/15 00:35:21;;;;;;;54.95;15.45;;;;;;;;;;4917584;29;20032;-77
2022/01/15 00:37:48;;;;;;;49.70;15.57;;;;;;;;;;4916977;29;20035;-78
2022/01/15 00:40:17;;;;;;;55.90;16.65;;;;;;;;;;4916821;29;20479;-77
2022/01/15 00:42:43;;;;;;;46.22;15.35;;;;;;;;;;4917073;29;20043;-78
2022/01/15 00:45:14;;;;;;;60.83;15.63;;;;;;;;;;4916423;29;20044;-78
2022/01/15 00:47:40;;;;;;;44.42;15.93;;;;;;;;;;4916582;29;20048;-77
2022/01/15 00:50:07;;;;;;;55.47;16.20;;;;;;;;;;4915566;29;20040;-77
2022/01/15 00:52:34;;;;;;;42.42;15.57;;;;;;;;;;4916723;29;20398;-77
2022/01/15 00:55:00;;;;;;;55.47;16.13;;;;;;;;;;4915506;29;20223;-79
2022/01/15 00:57:26;;;;;;;43.40;14.73;;;;;;;;;;4916902;29;20048;-77
2022/01/15 00:59:52;;;;;;;52.00;15.43;;;;;;;;;;4916126;29;20036;-78
2022/01/15 01:02:18;;;;;;;45.35;15.35;;;;;;;;;;4917478;29;20039;-77
2022/01/15 01:04:44;;;;;;;54.92;15.13;;;;;;;;;;4916821;29;20070;-77
2022/01/15 01:07:10;;;;;;;47.97;15.90;;;;;;;;;;4916651;29;20059;-78
2022/01/15 01:09:55;;;;;;;43.30;16.00;;;;;;;;;;4916527;29;20044;-78
2022/01/15 01:12:34;;;;;;;41.80;14.88;;;;;;;;;;4916925;29;20052;-77
2022/01/15 01:22:57;;;;;;;51.25;15.98;;;;;;;;;;4916651;29;20036;-78
2022/01/15 01:25:29;;;;;;;52.00;16.02;;;;;;;;;;4915162;29;20048;-79
2022/01/15 01:28:03;;;;;;;50.20;16.50;;;;;;;;;;4916637;29;20036;-77
2022/01/15 01:30:35;;;;;;;50.40;15.98;;;;;;;;;;4920188;29;20462;-78
2022/01/15 01:33:30;;;;;;;48.28;14.43;;;;;;;;;;4920625;29;20055;-78
2022/01/15 01:38:36;;;;;;;47.83;15.35;;;;;;;;;;4920327;29;20039;-77
2022/01/15 01:41:04;;;;;;;52.67;14.95;;;;;;;;;;4920484;29;20040;-77
2022/01/15 01:46:29;;;;;;;45.75;14.38;;;;;;;;;;4920403;29;20036;-78
2022/01/15 01:48:57;;;;;;;45.53;14.35;;;;;;;;;;4920068;29;20462;-77
2022/01/15 01:51:23;;;;;;;46.75;15.23;;;;;;;;;;4920133;29;20471;-76
2022/01/15 01:53:50;;;;;;;58.58;16.95;;;;;;;;;;4919743;29;20046;-76
2022/01/15 01:56:16;;;;;;;49.08;14.85;;;;;;;;;;4919644;29;20041;-78
2022/01/15 01:58:42;;;;;;;59.22;15.52;;;;;;;;;;4920227;29;20036;-78
2022/01/15 02:01:08;;;;;;;55.72;15.05;;;;;;;;;;4919231;29;20040;-77
2022/01/15 02:03:35;;;;;;;52.95;16.10;;;;;;;;;;4919923;29;20465;-76
2022/01/15 02:06:01;;;;;;;65.28;17.30;;;;;;;;;;4919318;29;20052;-78
2022/01/15 02:08:27;;;;;;;52.83;15.73;;;;;;;;;;4919222;29;20378;-78
2022/01/15 02:10:54;;;;;;;71.85;17.60;;;;;;;;;;4919108;29;20531;-76
2022/01/15 02:13:19;;;;;;;60.78;16.63;;;;;;;;;;4919849;29;20056;-78
2022/01/15 02:15:45;;;;;;;57.95;16.75;;;;;;;;;;4919174;29;20056;-76
2022/01/15 02:18:14;;;;;;;53.17;18.00;;;;;;;;;;4919179;29;20071;-76
2022/01/15 02:23:33;;;;;;;44.13;15.60;;;;;;;;;;4919555;29;20032;-77
2022/01/15 02:26:03;;;;;;;43.15;15.77;;;;;;;;;;4918881;29;20514;-76
2022/01/15 02:28:54;;;;;;;47.08;15.93;;;;;;;;;;4918770;29;20055;-77
2022/01/15 02:31:21;;;;;;;47.72;15.48;;;;;;;;;;4908835;29;20045;-78
2022/01/15 02:33:49;;;;;;;39.03;14.45;;;;;;;;;;4918648;29;20039;-78
2022/01/15 02:36:18;;;;;;;37.28;14.75;;;;;;;;;;4919169;29;20040;-78
2022/01/15 02:38:44;;;;;;;40.90;14.35;;;;;;;;;;4918688;29;20040;-78
2022/01/15 02:41:10;;;;;;;39.15;13.85;;;;;;;;;;4917924;29;20501;-78
2022/01/15 02:43:36;;;;;;;44.45;15.13;;;;;;;;;;4918501;29;20044;-78
2022/01/15 02:48:59;;;;;;;46.30;16.58;;;;;;;;;;4932180;29;20375;-78
2022/01/15 02:51:27;;;;;;;46.83;16.73;;;;;;;;;;4919533;29;20047;-78
2022/01/15 02:53:55;;;;;;;44.40;16.65;;;;;;;;;;4918468;29;20040;-78
2022/01/15 02:56:26;;;;;;;46.58;16.67;;;;;;;;;;4918413;29;20039;-77
2022/01/15 02:58:53;;;;;;;52.55;16.83;;;;;;;;;;4918579;29;20125;-78
2022/01/15 03:01:19;;;;;;;53.65;17.52;;;;;;;;;;4919094;29;20470;-78
2022/01/15 03:03:45;;;;;;;54.92;18.60;;;;;;;;;;4918422;29;20383;-77
2022/01/15 03:06:13;;;;;;;46.80;17.58;;;;;;;;;;4917049;29;20048;-78
2022/01/15 03:08:40;;;;;;;57.28;19.05;;;;;;;;;;4918192;29;20044;-78
2022/01/15 03:11:07;;;;;;;55.75;19.35;;;;;;;;;;4918631;29;20043;-78
2022/01/15 03:13:34;;;;;;;60.00;19.80;;;;;;;;;;4918433;29;20375;-78
2022/01/15 03:16:00;;;;;;;57.55;18.80;;;;;;;;;;4918053;29;20048;-78
2022/01/15 03:18:27;;;;;;;51.80;17.85;;;;;;;;;;4918362;29;20044;-78
2022/01/15 03:20:52;;;;;;;43.92;17.15;;;;;;;;;;4918195;29;20051;-78
2022/01/15 03:23:18;;;;;;;48.90;18.33;;;;;;;;;;4918271;29;20442;-78
2022/01/15 03:25:44;;;;;;;52.35;19.35;;;;;;;;;;4918254;29;20136;-78
2022/01/15 03:28:10;;;;;;;51.55;17.98;;;;;;;;;;4918126;29;20036;-78
2022/01/15 03:30:38;;;;;;;47.97;18.67;;;;;;;;;;4917793;29;20040;-78
2022/01/15 03:33:05;;;;;;;55.80;18.17;;;;;;;;;;4916462;29;20048;-77
2022/01/15 03:35:31;;;;;;;49.15;17.70;;;;;;;;;;4917866;29;20051;-77
2022/01/15 03:37:57;;;;;;;49.80;17.85;;;;;;;;;;4916659;29;20044;-78
2022/01/15 03:40:23;;;;;;;48.92;17.83;;;;;;;;;;4919578;29;20398;-78
2022/01/15 03:42:49;;;;;;;51.70;18.38;;;;;;;;;;4918265;29;20071;-78
2022/01/15 03:55:39;;;;;;;50.10;18.17;;;;;;;;;;4944347;23;20058;-77
2022/01/15 03:58:05;;;;;;;55.50;18.60;;;;;;;;;;4938691;29;20142;-77
2022/01/15 04:00:31;;;;;;;53.72;18.50;;;;;;;;;;4949889;29;20054;-77
2022/01/15 04:02:59;;;;;;;53.55;17.98;;;;;;;;;;4950132;28;20091;-77
2022/01/15 04:05:24;;;;;;;51.15;17.83;;;;;;;;;;4948918;29;20055;-77
2022/01/15 04:13:19;;;;;;;49.15;16.60;;;;;;;;;;5157514;23;20514;-73
2022/01/15 04:15:51;;;;;;;55.10;18.10;;;;;;;;;;4972899;23;20051;-73
2022/01/15 04:18:17;;;;;;;58.05;18.02;;;;;;;;;;4975007;28;20088;-73
2022/01/15 04:20:43;;;;;;;49.15;16.52;;;;;;;;;;4981277;28;20030;-73
2022/01/15 04:23:09;;;;;;;54.95;17.15;;;;;;;;;;4968542;28;20057;-73
2022/01/15 04:25:35;;;;;;;49.78;17.23;;;;;;;;;;4968282;28;20049;-72
2022/01/15 04:28:06;;;;;;;58.72;16.92;;;;;;;;;;4968277;28;20078;-72
2022/01/15 04:30:32;;;;;;;60.60;19.15;;;;;;;;;;4968460;28;20085;-72
2022/01/15 04:32:58;;;;;;;67.30;18.58;;;;;;;;;;4974911;28;20050;-73
2022/01/15 04:35:24;;;;;;;59.40;17.92;;;;;;;;;;4969737;28;20043;-74
2022/01/15 04:37:54;;;;;;;73.60;19.45;;;;;;;;;;4969341;28;20053;-73
2022/01/15 04:40:20;;;;;;;59.30;18.30;;;;;;;;;;4968897;28;20592;-72
2022/01/15 04:42:46;;;;;;;60.13;18.08;;;;;;;;;;4968768;28;20083;-73
2022/01/15 04:45:12;;;;;;;69.40;18.48;;;;;;;;;;4968508;28;20133;-73
2022/01/15 04:47:39;;;;;;;59.53;17.85;;;;;;;;;;4968751;28;20077;-72
2022/01/15 04:50:09;;;;;;;60.70;18.13;;;;;;;;;;4968523;28;20046;-73
2022/01/15 04:52:36;;;;;;;56.72;16.88;;;;;;;;;;4968218;28;20396;-73
2022/01/15 04:55:03;;;;;;;63.22;17.13;;;;;;;;;;4951099;28;20055;-72
2022/01/15 04:57:29;;;;;;;62.20;18.67;;;;;;;;;;4975190;28;20397;-72
2022/01/15 04:59:55;;;;;;;49.17;16.25;;;;;;;;;;4977842;28;20046;-73
2022/01/15 05:02:21;;;;;;;67.63;19.48;;;;;;;;;;4984088;28;20573;-72
2022/01/15 05:04:47;;;;;;;55.65;17.80;;;;;;;;;;4931846;28;20129;-72
2022/01/15 05:07:13;;;;;;;53.50;17.23;;;;;;;;;;4972101;28;20076;-73
2022/01/15 05:09:39;;;;;;;64.80;18.27;;;;;;;;;;4977066;28;20043;-74
2022/01/15 05:12:24;;;;;;;44.45;15.88;;;;;;;;;;4977798;28;20049;-74
2022/01/15 05:15:05;;;;;;;57.00;15.90;;;;;;;;;;5096425;27;20729;-74
2022/01/15 05:17:31;;;;;;;58.28;16.17;;;;;;;;;;5085452;28;20050;-73
2022/01/15 05:19:57;;;;;;;56.25;17.33;;;;;;;;;;5085745;28;20461;-72
2022/01/15 05:22:23;;;;;;;63.13;17.98;;;;;;;;;;5084138;28;20041;-74
2022/01/15 05:24:48;;;;;;;55.35;17.17;;;;;;;;;;5083952;28;20387;-74
2022/01/15 05:27:15;;;;;;;50.42;17.25;;;;;;;;;;5084139;28;20042;-73
2022/01/15 05:29:41;;;;;;;42.53;14.98;;;;;;;;;;5085629;28;20534;-73
2022/01/15 05:32:07;;;;;;;58.70;18.73;;;;;;;;;;5084546;28;20140;-72
2022/01/15 05:34:33;;;;;;;52.53;16.95;;;;;;;;;;5075983;28;20036;-72
2022/01/15 05:36:59;;;;;;;49.63;16.83;;;;;;;;;;5076024;28;20083;-73
2022/01/15 05:39:25;;;;;;;50.10;17.70;;;;;;;;;;5080961;28;20024;-73
2022/01/15 05:41:51;;;;;;;62.67;18.52;;;;;;;;;;5099112;28;20051;-73
2022/01/15 05:44:17;;;;;;;48.17;15.88;;;;;;;;;;5097764;28;20076;-72
2022/01/15 05:46:44;;;;;;;51.33;17.08;;;;;;;;;;5099786;28;20052;-73
2022/01/15 05:49:10;;;;;;;49.05;16.83;;;;;;;;;;5086446;28;20037;-73
2022/01/15 05:51:36;;;;;;;48.85;17.00;;;;;;;;;;5095332;28;20036;-74
2022/01/15 05:54:10;;;;;;;43.13;15.93;;;;;;;;;;5102225;28;20322;-73
2022/01/15 05:56:40;;;;;;;45.50;15.40;;;;;;;;;;5103525;28;20020;-72
2022/01/15 05:59:07;;;;;;;46.58;15.63;;;;;;;;;;5090466;28;20044;-74
2022/01/15 06:01:36;;;;;;;46.53;17.40;;;;;;;;;;5075375;28;20044;-73
2022/01/15 06:04:03;;;;;;;55.17;17.35;;;;;;;;;;5083867;28;20405;-72
2022/01/15 06:06:29;;;;;;;50.05;16.90;;;;;;;;;;5067035;28;20428;-73
2022/01/15 06:08:56;;;;;;;52.03;17.55;;;;;;;;;;5080031;28;20047;-75
2022/01/15 06:11:23;;;;;;;44.10;16.50;;;;;;;;;;5084672;28;20409;-74
2022/01/15 06:13:49;;;;;;;43.33;16.67;;;;;;;;;;5082848;28;20036;-74
2022/01/15 06:16:15;;;;;;;38.78;15.95;;;;;;;;;;5083618;28;20060;-74
2022/01/15 06:18:41;;;;;;;36.63;14.18;;;;;;;;;;5083045;28;20052;-74
2022/01/15 06:21:07;;;;;;;36.45;13.57;;;;;;;;;;5083914;28;20051;-74
2022/01/15 06:23:33;;;;;;;36.60;14.93;;;;;;;;;;5082705;28;20319;-73
2022/01/15 06:25:59;;;;;;;33.03;13.35;;;;;;;;;;5071349;28;20470;-73
2022/01/15 06:28:26;;;;;;;28.00;11.98;;;;;;;;;;5069581;28;20051;-73
2022/01/15 06:30:52;;;;;;;27.63;11.85;;;;;;;;;;5069972;28;20047;-72
2022/01/15 06:33:18;;;;;;;26.45;11.18;;;;;;;;;;5068975;28;20056;-73
2022/01/15 06:35:44;;;;;;;23.20;11.13;;;;;;;;;;5068398;28;20515;-74
2022/01/15 06:38:10;;;;;;;17.38;8.70;;;;;;;;;;5067528;28;20043;-74
2022/01/15 06:40:36;;;;;;;20.40;9.82;;;;;;;;;;5069263;28;20036;-75
2022/01/15 06:43:02;;;;;;;23.00;9.43;;;;;;;;;;5069617;28;20072;-73
2022/01/15 06:45:30;;;;;;;21.42;10.10;;;;;;;;;;5069248;28;20398;-73
2022/01/15 06:47:57;;;;;;;22.05;11.35;;;;;;;;;;5068988;28;20090;-73
2022/01/15 06:50:24;;;;;;;22.05;10.07;;;;;;;;;;5069183;28;20458;-74
2022/01/15 06:52:50;;;;;;;20.92;10.73;;;;;;;;;;5070311;28;20124;-76
2022/01/15 06:55:17;;;;;;;20.15;10.20;;;;;;;;;;5068917;28;20174;-74
2022/01/15 06:57:43;;;;;;;24.80;11.55;;;;;;;;;;5068241;28;20032;-74
2022/01/15 07:00:11;;;;;;;21.85;10.15;;;;;;;;;;5069226;28;20056;-76
2022/01/15 07:02:38;;;;;;;22.55;10.32;;;;;;;;;;5067716;28;20032;-73
2022/01/15 07:05:06;;;;;;;24.52;10.60;;;;;;;;;;5069828;28;20474;-73
2022/01/15 07:07:32;;;;;;;15.88;8.73;;;;;;;;;;5068342;28;20036;-74
2022/01/15 07:09:58;;;;;;;22.80;10.57;;;;;;;;;;5067732;28;20056;-73
2022/01/15 07:12:24;;;;;;;24.88;11.25;;;;;;;;;;5068949;28;20037;-73
2022/01/15 07:14:50;;;;;;;21.02;10.07;;;;;;;;;;5068728;28;20079;-74
2022/01/15 07:17:16;;;;;;;22.88;10.93;;;;;;;;;;5068636;28;20148;-74
2022/01/15 07:19:42;;;;;;;24.88;13.48;;;;;;;;;;5068438;28;20029;-73
2022/01/15 07:22:08;;;;;;;25.13;12.75;;;;;;;;;;5068584;28;20529;-74
2022/01/15 07:24:35;;;;;;;19.95;10.07;;;;;;;;;;5068478;28;20047;-74
2022/01/15 07:27:01;;;;;;;27.98;11.75;;;;;;;;;;5069283;28;20043;-73
2022/01/15 07:29:29;;;;;;;25.20;11.25;;;;;;;;;;5069135;28;20060;-72
2022/01/15 07:31:55;;;;;;;20.20;10.68;;;;;;;;;;5070069;28;20040;-74
2022/01/15 07:34:24;;;;;;;19.48;9.57;;;;;;;;;;5069787;28;20040;-74
2022/01/15 07:36:53;;;;;;;20.70;10.32;;;;;;;;;;5068564;28;20046;-73
2022/01/15 07:39:20;;;;;;;23.00;11.23;;;;;;;;;;5068621;28;20044;-73
2022/01/15 07:41:46;;;;;;;19.48;9.25;;;;;;;;;;5068160;28;20032;-74
2022/01/15 07:44:12;;;;;;;19.15;10.68;;;;;;;;;;5068903;28;20478;-74
2022/01/15 07:46:38;;;;;;;20.55;10.50;;;;;;;;;;5069083;28;20059;-75
2022/01/15 07:49:04;;;;;;;17.42;9.68;;;;;;;;;;5069532;28;20121;-75
2022/01/15 07:51:30;;;;;;;23.27;9.75;;;;;;;;;;5069002;28;20043;-75
2022/01/15 07:53:56;;;;;;;22.90;12.23;;;;;;;;;;5067907;28;20344;-75
2022/01/15 07:56:22;;;;;;;19.63;9.25;;;;;;;;;;5067905;28;20072;-75
2022/01/15 07:58:48;;;;;;;20.23;10.20;;;;;;;;;;5068503;28;20070;-75
2022/01/15 08:01:14;;;;;;;17.33;9.13;;;;;;;;;;5069613;28;20420;-74
2022/01/15 08:03:40;;;;;;;21.38;11.60;;;;;;;;;;5069362;28;20048;-74
2022/01/15 08:06:08;;;;;;;20.25;11.00;;;;;;;;;;5069187;28;20382;-73
2022/01/15 08:08:34;;;;;;;19.92;10.48;;;;;;;;;;5069976;28;20041;-74
2022/01/15 08:11:00;;;;;;;21.55;9.70;;;;;;;;;;5069639;28;20035;-73
2022/01/15 08:13:26;;;;;;;19.98;11.30;;;;;;;;;;5068442;28;20444;-73
2022/01/15 08:15:55;;;;;;;16.70;9.05;;;;;;;;;;5068539;28;20024;-73
2022/01/15 08:18:21;;;;;;;15.30;7.28;;;;;;;;;;5066846;28;20040;-73
2022/01/15 08:20:48;;;;;;;16.60;9.23;;;;;;;;;;5051425;28;20048;-73
2022/01/15 08:23:14;;;;;;;18.05;8.70;;;;;;;;;;5052049;28;20390;-73
2022/01/15 08:25:40;;;;;;;15.32;8.30;;;;;;;;;;5050567;28;20079;-74
2022/01/15 08:28:07;;;;;;;14.98;8.40;;;;;;;;;;5067527;28;20051;-75
2022/01/15 08:30:33;;;;;;;15.75;8.07;;;;;;;;;;5072373;28;20032;-74
2022/01/15 08:32:59;;;;;;;15.60;8.55;;;;;;;;;;5066424;28;20044;-75
2022/01/15 08:35:24;;;;;;;16.80;8.15;;;;;;;;;;5062601;28;20045;-75
2022/01/15 08:37:54;;;;;;;15.27;8.05;;;;;;;;;;5071477;28;20037;-75
2022/01/15 08:40:21;;;;;;;16.38;8.65;;;;;;;;;;5071644;28;20036;-75
2022/01/15 08:42:48;;;;;;;13.35;7.22;;;;;;;;;;5070015;28;20583;-75
2022/01/15 08:45:19;;;;;;;16.83;8.75;;;;;;;;;;5069649;28;20067;-75
2022/01/15 08:47:44;;;;;;;13.63;7.15;;;;;;;;;;5069694;28;20401;-73
2022/01/15 08:50:12;;;;;;;15.45;7.57;;;;;;;;;;5071561;28;20123;-73
2022/01/15 08:52:39;;;;;;;12.63;7.80;;;;;;;;;;5070952;28;20040;-73
2022/01/15 08:55:06;;;;;;;14.35;8.05;;;;;;;;;;5071036;28;20050;-73
2022/01/15 08:57:33;;;;;;;14.50;7.00;;;;;;;;;;5070676;28;20056;-73
2022/01/15 08:59:59;;;;;;;14.15;7.93;;;;;;;;;;5069812;28;20037;-74
2022/01/15 09:02:25;;;;;;;13.52;6.72;;;;;;;;;;5070922;28;20040;-73
2022/01/15 09:04:52;;;;;;;12.23;6.60;;;;;;;;;;5067769;28;20390;-73
2022/01/15 09:07:18;;;;;;;11.30;6.28;;;;;;;;;;5058568;28;20043;-73
2022/01/15 09:09:44;;;;;;;13.43;7.45;;;;;;;;;;5063574;28;20033;-73
2022/01/15 09:12:11;;;;;;;12.68;7.05;;;;;;;;;;5059497;28;20068;-73
2022/01/15 09:14:38;;;;;;;12.88;6.90;;;;;;;;;;5064864;28;20048;-73
2022/01/15 09:17:05;;;;;;;14.85;7.97;;;;;;;;;;5070811;28;20489;-73
2022/01/15 09:19:33;;;;;;;16.55;8.32;;;;;;;;;;5071119;28;20044;-73
2022/01/15 09:22:00;;;;;;;17.02;9.07;;;;;;;;;;5072021;28;20040;-71
2022/01/15 09:24:26;;;;;;;16.83;9.15;;;;;;;;;;5070201;28;20044;-71
2022/01/15 09:32:07;;;;;;;16.33;7.43;;;;;;;;;;5057262;28;20041;-71
2022/01/15 09:34:36;;;;;;;15.63;7.50;;;;;;;;;;5063374;28;20044;-71
2022/01/15 09:37:03;;;;;;;15.27;7.97;;;;;;;;;;5070651;28;20037;-71
2022/01/15 09:39:30;;;;;;;16.52;8.73;;;;;;;;;;5070962;28;20044;-71
2022/01/15 09:41:56;;;;;;;17.42;9.02;;;;;;;;;;5070620;28;20028;-71
2022/01/15 09:44:24;;;;;;;17.17;8.80;;;;;;;;;;5070583;28;20045;-71
2022/01/15 09:46:52;;;;;;;14.90;7.85;;;;;;;;;;5070775;28;20032;-71
2022/01/15 09:49:20;;;;;;;15.63;8.30;;;;;;;;;;5052276;28;20053;-71
2022/01/15 09:51:46;;;;;;;17.00;8.85;;;;;;;;;;5050605;28;20113;-71
2022/01/15 09:54:15;;;;;;;16.77;8.82;;;;;;;;;;5067094;28;20043;-72
2022/01/15 09:56:42;;;;;;;15.25;8.60;;;;;;;;;;5070526;28;20036;-71
2022/01/15 09:59:08;;;;;;;16.77;9.00;;;;;;;;;;5070654;28;20036;-71
2022/01/15 10:01:34;;;;;;;18.65;8.98;;;;;;;;;;5073928;28;20044;-71
2022/01/15 10:04:00;;;;;;;15.35;8.00;;;;;;;;;;5074805;28;20036;-71
2022/01/15 10:06:26;;;;;;;19.60;9.35;;;;;;;;;;5073717;28;20397;-72
2022/01/15 10:09:07;;;;;;;14.75;8.90;;;;;;;;;;5074013;28;20048;-71
2022/01/15 10:11:44;;;;;;;19.02;8.98;;;;;;;;;;5073794;28;20048;-71
2022/01/15 10:14:22;;;;;;;15.30;8.32;;;;;;;;;;5073498;28;20055;-71
2022/01/15 10:16:48;;;;;;;17.27;9.32;;;;;;;;;;5064377;28;20386;-71
2022/01/15 10:19:29;;;;;;;16.02;7.53;;;;;;;;;;5060186;28;20082;-71
2022/01/15 10:22:21;;;;;;;18.58;8.27;;;;;;;;;;5061694;28;20045;-73
2022/01/15 10:25:19;;;;;;;13.93;7.47;;;;;;;;;;5055292;28;20033;-71
2022/01/15 10:27:49;;;;;;;14.25;8.50;;;;;;;;;;5054628;28;20052;-71
2022/01/15 10:30:20;;;;;;;16.33;8.75;;;;;;;;;;5065156;28;20044;-72
2022/01/15 10:32:57;;;;;;;17.23;8.32;;;;;;;;;;5061358;28;20037;-71
2022/01/15 10:35:27;;;;;;;36.47;16.80;;;;;;;;;;5054336;28;20045;-70
2022/01/15 10:37:55;;;;;;;20.60;10.63;;;;;;;;;;5054598;28;20095;-72
2022/01/15 10:40:38;;;;;;;16.67;8.98;;;;;;;;;;5054677;28;20043;-72
2022/01/15 10:43:04;;;;;;;18.00;9.23;;;;;;;;;;5063450;28;20041;-72
2022/01/15 10:45:35;;;;;;;17.45;8.68;;;;;;;;;;5054688;28;20044;-72
2022/01/15 10:48:03;;;;;;;16.98;8.40;;;;;;;;;;5054659;28;20037;-72
2022/01/15 10:50:35;;;;;;;15.48;8.60;;;;;;;;;;5054691;28;20471;-72
2022/01/15 10:59:27;;;;;;;14.18;8.05;;;;;;;;;;5030201;28;20049;-71
2022/01/15 11:07:53;;;;;;;16.38;8.80;;;;;;;;;;5738579;22;20027;-74
2022/01/15 11:10:20;;;;;;;15.52;8.93;;;;;;;;;;5036819;23;20045;-71
2022/01/15 11:12:46;;;;;;;18.35;9.27;;;;;;;;;;5041581;28;20048;-70
2022/01/15 11:15:12;;;;;;;17.42;9.43;;;;;;;;;;5035373;28;20052;-71
2022/01/15 11:17:39;;;;;;;17.45;8.82;;;;;;;;;;5070436;28;20060;-71
2022/01/15 11:20:06;;;;;;;19.80;9.52;;;;;;;;;;5068431;28;20044;-71
2022/01/15 11:22:33;;;;;;;16.73;9.65;;;;;;;;;;5061406;28;20421;-72
2022/01/15 11:24:59;;;;;;;15.70;8.80;;;;;;;;;;5059665;28;20500;-71
2022/01/15 11:27:31;;;;;;;15.70;9.15;;;;;;;;;;5060792;28;20223;-71
2022/01/15 11:29:58;;;;;;;15.57;9.10;;;;;;;;;;5051237;28;20032;-72
2022/01/15 11:32:28;;;;;;;15.07;8.80;;;;;;;;;;5049620;28;20059;-72
2022/01/15 11:35:07;;;;;;;15.88;8.77;;;;;;;;;;5067230;28;20044;-72
2022/01/15 11:37:49;;;;;;;15.23;8.63;;;;;;;;;;5051807;28;20052;-71
2022/01/15 11:40:36;;;;;;;13.32;7.78;;;;;;;;;;5068858;28;20195;-71
2022/01/15 19:00:25;;;;;;;37.10;17.85;;;;;;;;;;5006813;28;20637;-77
2022/01/15 19:02:52;;;;;;;41.90;19.58;;;;;;;;;;5002183;28;20045;-75
2022/01/15 19:05:19;;;;;;;38.75;19.33;;;;;;;;;;5037817;28;20052;-75
2022/01/15 19:07:45;;;;;;;33.60;17.70;;;;;;;;;;5031278;28;20403;-77
2022/01/15 19:10:12;;;;;;;37.80;18.58;;;;;;;;;;5034214;28;20057;-75
2022/01/15 19:12:40;;;;;;;34.38;18.15;;;;;;;;;;5037086;28;20033;-78
2022/01/15 19:15:09;;;;;;;33.03;17.95;;;;;;;;;;5033580;28;20037;-80
2022/01/15 19:17:40;;;;;;;35.05;18.15;;;;;;;;;;5041526;28;20034;-78
2022/01/15 19:20:10;;;;;;;33.03;17.70;;;;;;;;;;5038058;28;20045;-77
2022/01/15 19:22:36;;;;;;;34.45;17.23;;;;;;;;;;5036951;28;20040;-74
2022/01/15 19:25:02;;;;;;;32.67;17.33;;;;;;;;;;5037504;28;20041;-77
2022/01/15 19:27:29;;;;;;;37.92;20.27;;;;;;;;;;5034477;28;20442;-76
2022/01/15 19:29:55;;;;;;;34.80;19.17;;;;;;;;;;5024854;28;20452;-75
2022/01/15 19:32:22;;;;;;;36.15;19.63;;;;;;;;;;5026472;28;20049;-75
2022/01/15 19:34:48;;;;;;;34.47;19.20;;;;;;;;;;5043410;28;20032;-75
2022/01/15 19:37:14;;;;;;;31.15;19.70;;;;;;;;;;5042336;28;20042;-74
2022/01/15 19:39:40;;;;;;;34.65;18.80;;;;;;;;;;5036436;28;20103;-74
2022/01/15 19:42:06;;;;;;;31.13;17.80;;;;;;;;;;5025514;28;20526;-76
2022/01/15 19:44:32;;;;;;;29.58;17.80;;;;;;;;;;5044022;28;20585;-78
2022/01/15 19:46:58;;;;;;;31.05;16.60;;;;;;;;;;5025293;28;20049;-75
2022/01/15 19:49:24;;;;;;;35.25;21.10;;;;;;;;;;5021896;28;20050;-78
2022/01/15 19:51:50;;;;;;;30.58;17.48;;;;;;;;;;5023568;28;20065;-76
2022/01/15 19:54:17;;;;;;;28.70;16.58;;;;;;;;;;5022721;28;20510;-76
2022/01/15 19:56:44;;;;;;;35.75;18.77;;;;;;;;;;5038146;28;20064;-78
2022/01/15 19:59:10;;;;;;;28.33;16.58;;;;;;;;;;5037914;28;20672;-78
2022/01/15 20:01:36;;;;;;;34.03;18.42;;;;;;;;;;5012608;28;20065;-78
2022/01/15 20:04:02;;;;;;;30.98;17.00;;;;;;;;;;5003842;28;20480;-78
2022/01/15 20:06:27;;;;;;;31.10;18.92;;;;;;;;;;5002834;28;20061;-75
2022/01/15 20:08:53;;;;;;;25.25;13.07;;;;;;;;;;5003539;28;20056;-77
2022/01/15 20:11:19;;;;;;;24.92;14.75;;;;;;;;;;4992337;28;20061;-77
2022/01/15 20:13:46;;;;;;;29.15;15.38;;;;;;;;;;4989627;28;20046;-77
2022/01/15 20:16:13;;;;;;;34.97;20.80;;;;;;;;;;5007828;28;20420;-80
2022/01/15 20:18:41;;;;;;;34.90;20.02;;;;;;;;;;5012014;28;20044;-78
2022/01/15 20:21:07;;;;;;;34.13;20.33;;;;;;;;;;5021746;28;20492;-78
2022/01/15 20:23:33;;;;;;;30.27;18.85;;;;;;;;;;5026742;28;20046;-79
2022/01/15 20:25:59;;;;;;;32.78;18.45;;;;;;;;;;5028066;28;20062;-77
2022/01/15 20:28:25;;;;;;;33.17;19.52;;;;;;;;;;5012512;28;20065;-79
2022/01/15 20:30:51;;;;;;;47.88;25.50;;;;;;;;;;5014057;28;20403;-79
2022/01/15 20:33:18;;;;;;;33.85;18.70;;;;;;;;;;5012610;28;20034;-80
2022/01/15 20:35:44;;;;;;;35.45;19.45;;;;;;;;;;5008280;28;20719;-79
2022/01/15 20:38:10;;;;;;;39.53;21.98;;;;;;;;;;4987009;28;20029;-78
2022/01/15 20:40:36;;;;;;;29.88;17.67;;;;;;;;;;4993411;28;20057;-77
2022/01/15 20:43:03;;;;;;;27.15;16.30;;;;;;;;;;4991724;28;20062;-78
2022/01/15 20:45:30;;;;;;;32.22;17.23;;;;;;;;;;4996771;28;20042;-79
2022/01/15 20:47:57;;;;;;;30.05;17.23;;;;;;;;;;5011876;28;20049;-76
2022/01/15 20:50:24;;;;;;;27.17;15.95;;;;;;;;;;5026526;28;20072;-78
2022/01/15 20:52:51;;;;;;;31.90;17.17;;;;;;;;;;5011427;28;20105;-78
2022/01/15 20:55:17;;;;;;;35.33;20.60;;;;;;;;;;5009239;28;20574;-76
2022/01/15 20:57:48;;;;;;;30.75;16.65;;;;;;;;;;5010277;28;20671;-76
2022/01/15 21:00:21;;;;;;;30.55;17.05;;;;;;;;;;5025512;28;20046;-75
2022/01/15 21:02:48;;;;;;;35.50;19.92;;;;;;;;;;5009961;28;20034;-76
2022/01/15 21:05:14;;;;;;;34.35;18.25;;;;;;;;;;5009369;28;20037;-76
2022/01/15 21:07:40;;;;;;;32.90;18.80;;;;;;;;;;5025595;28;20042;-78
2022/01/15 21:10:09;;;;;;;29.67;17.70;;;;;;;;;;4999590;28;20034;-77
2022/01/15 21:12:35;;;;;;;29.98;17.73;;;;;;;;;;5006326;28;20049;-79
2022/01/15 21:15:03;;;;;;;35.83;19.73;;;;;;;;;;5003704;28;20046;-77
2022/01/15 21:17:29;;;;;;;32.38;17.50;;;;;;;;;;5003734;28;20186;-77
2022/01/15 21:19:55;;;;;;;30.95;16.55;;;;;;;;;;4988938;28;20038;-76
2022/01/15 21:22:21;;;;;;;30.98;17.23;;;;;;;;;;5002205;28;20038;-78
2022/01/15 21:24:47;;;;;;;38.72;19.45;;;;;;;;;;5000025;28;20129;-78
2022/01/15 21:27:14;;;;;;;31.58;17.45;;;;;;;;;;4986908;28;20031;-79
2022/01/15 21:29:40;;;;;;;28.02;16.77;;;;;;;;;;4986935;28;20046;-80
2022/01/15 21:32:09;;;;;;;31.02;16.95;;;;;;;;;;4988956;28;20042;-79
2022/01/15 21:34:35;;;;;;;32.88;18.85;;;;;;;;;;5021189;28;20054;-80
2022/01/15 21:37:01;;;;;;;34.97;17.67;;;;;;;;;;5007614;28;20029;-80
2022/01/15 21:39:26;;;;;;;32.92;17.38;;;;;;;;;;5015206;28;20488;-77
2022/01/15 21:41:53;;;;;;;28.05;15.52;;;;;;;;;;5000240;28;20081;-79
2022/01/15 21:44:20;;;;;;;30.48;15.95;;;;;;;;;;4991996;28;20049;-78
2022/01/15 21:46:46;;;;;;;32.20;15.93;;;;;;;;;;5023766;28;20050;-75
2022/01/15 21:49:16;;;;;;;31.63;16.40;;;;;;;;;;5022565;28;20664;-76
2022/01/15 21:51:43;;;;;;;30.92;16.73;;;;;;;;;;5022515;28;20037;-76
2022/01/15 21:54:09;;;;;;;27.60;15.70;;;;;;;;;;5022010;28;20399;-76
2022/01/15 21:56:35;;;;;;;33.15;17.40;;;;;;;;;;5022598;28;20507;-75
2022/01/15 21:59:03;;;;;;;33.53;17.83;;;;;;;;;;5007813;28;20197;-77
2022/01/15 22:01:30;;;;;;;33.80;17.95;;;;;;;;;;5008128;28;20045;-77
2022/01/15 22:03:56;;;;;;;29.35;15.45;;;;;;;;;;5008329;28;20057;-76
2022/01/15 22:06:24;;;;;;;29.65;16.00;;;;;;;;;;5007093;28;20026;-77
2022/01/15 22:08:56;;;;;;;25.30;14.43;;;;;;;;;;5005774;28;20037;-77
2022/01/15 22:11:23;;;;;;;28.80;15.95;;;;;;;;;;4988019;28;20841;-76
2022/01/15 22:13:49;;;;;;;27.77;14.75;;;;;;;;;;4988617;28;20087;-80
2022/01/15 22:16:15;;;;;;;29.90;15.52;;;;;;;;;;4987333;28;20043;-75
2022/01/15 22:18:41;;;;;;;28.45;14.45;;;;;;;;;;4987240;28;20034;-76
2022/01/15 22:21:07;;;;;;;28.00;14.30;;;;;;;;;;4971680;28;20085;-77
2022/01/15 22:23:33;;;;;;;31.40;14.63;;;;;;;;;;4967779;28;20121;-74
2022/01/15 22:25:59;;;;;;;28.92;14.43;;;;;;;;;;4967656;28;20082;-74
2022/01/15 22:28:25;;;;;;;30.42;15.32;;;;;;;;;;4970900;28;20043;-74
2022/01/15 22:30:53;;;;;;;29.77;15.40;;;;;;;;;;4968624;28;20452;-74
2022/01/15 22:33:20;;;;;;;29.10;14.15;;;;;;;;;;4982304;28;20486;-74